createdAt,value
2019-05-29T00:02:24.992Z,11.29
2019-05-29T00:04:59.159Z,11.22
2019-05-29T00:07:32.647Z,11.25
2019-05-29T00:10:10.361Z,11.22
2019-05-29T00:12:43.965Z,11.20
2019-05-29T00:15:18.691Z,11.01
2019-05-29T00:17:52.216Z,11.02
2019-05-29T00:20:25.625Z,10.94
2019-05-29T00:22:59.041Z,10.99
2019-05-29T00:25:32.453Z,10.91
2019-05-29T00:28:06.500Z,10.89
2019-05-29T00:30:39.958Z,10.82
2019-05-29T00:33:14.409Z,10.81
2019-05-29T00:35:47.860Z,10.78
2019-05-29T00:38:21.270Z,10.85
2019-05-29T00:40:54.679Z,10.86
2019-05-29T00:43:28.102Z,10.74
2019-05-29T00:46:01.511Z,10.84
2019-05-29T00:48:34.929Z,10.79
2019-05-29T00:51:08.910Z,10.79
2019-05-29T00:53:42.447Z,10.84
2019-05-29T00:56:16.687Z,10.76
2019-05-29T00:58:50.178Z,10.77
2019-05-29T01:01:23.583Z,10.82
2019-05-29T01:03:57.029Z,10.91
2019-05-29T01:06:30.429Z,10.84
2019-05-29T01:09:04.634Z,10.84
2019-05-29T01:11:38.052Z,10.90
2019-05-29T01:14:11.464Z,10.87
2019-05-29T01:16:44.857Z,10.85
2019-05-29T01:19:27.191Z,10.86
2019-05-29T01:22:00.615Z,10.86
2019-05-29T01:24:34.034Z,10.83
2019-05-29T01:27:07.457Z,10.89
2019-05-29T01:29:40.885Z,10.93
2019-05-29T01:32:15.248Z,10.92
2019-05-29T01:34:48.903Z,10.89
2019-05-29T01:37:22.377Z,10.88
2019-05-29T01:39:55.760Z,10.84
2019-05-29T01:42:29.184Z,10.90
2019-05-29T01:45:07.565Z,10.92
2019-05-29T01:47:37.729Z,11.02
2019-05-29T01:50:11.795Z,11.04
2019-05-29T01:52:45.185Z,11.03
2019-05-29T01:55:19.760Z,11.01
2019-05-29T01:57:53.238Z,11.07
2019-05-29T02:00:28.336Z,11.01
2019-05-29T02:03:01.911Z,11.08
2019-05-29T02:05:35.319Z,11.09
2019-05-29T02:08:08.721Z,11.04
2019-05-29T02:10:42.149Z,11.06
2019-05-29T02:13:15.549Z,11.14
2019-05-29T02:15:49.036Z,11.14
2019-05-29T02:18:22.992Z,11.12
2019-05-29T02:20:56.558Z,11.17
2019-05-29T02:23:29.956Z,11.13
2019-05-29T02:26:03.445Z,11.09
2019-05-29T02:28:36.850Z,11.12
2019-05-29T02:31:10.273Z,11.09
2019-05-29T02:33:43.669Z,11.15
2019-05-29T02:36:17.855Z,11.19
2019-05-29T02:38:51.310Z,11.11
2019-05-29T02:41:26.185Z,11.10
2019-05-29T02:43:59.890Z,11.11
2019-05-29T02:46:33.295Z,11.08
2019-05-29T02:49:06.718Z,11.07
2019-05-29T02:51:40.199Z,11.03
2019-05-29T02:54:13.668Z,10.97
2019-05-29T02:56:47.062Z,10.95
2019-05-29T02:59:21.085Z,10.93
2019-05-29T03:01:54.715Z,10.91
2019-05-29T03:04:30.021Z,10.92
2019-05-29T03:07:03.422Z,10.89
2019-05-29T03:09:37.192Z,10.90
2019-05-29T03:12:10.643Z,10.87
2019-05-29T03:14:44.056Z,10.87
2019-05-29T03:17:17.493Z,10.88
2019-05-29T03:19:50.928Z,10.92
2019-05-29T03:22:24.328Z,10.90
2019-05-29T03:24:57.735Z,10.88
2019-05-29T03:27:31.986Z,10.88
2019-05-29T03:30:07.133Z,10.86
2019-05-29T03:32:47.312Z,10.86
2019-05-29T03:35:15.726Z,10.80
2019-05-29T03:37:49.156Z,10.78
2019-05-29T03:40:22.613Z,10.75
2019-05-29T03:42:55.987Z,10.80
2019-05-29T03:45:31.209Z,10.75
2019-05-29T03:48:04.870Z,10.78
2019-05-29T03:50:38.609Z,10.80
2019-05-29T03:53:12.178Z,10.83
2019-05-29T03:55:45.603Z,10.86
2019-05-29T03:58:19.013Z,10.89
2019-05-29T04:00:52.469Z,10.91
2019-05-29T04:03:26.955Z,10.95
2019-05-29T04:06:00.547Z,10.97
2019-05-29T04:08:35.510Z,11.00
2019-05-29T04:11:09.260Z,11.07
2019-05-29T04:13:42.736Z,11.03
2019-05-29T04:16:16.347Z,11.11
2019-05-29T04:18:50.509Z,11.10
2019-05-29T04:21:25.061Z,11.15
2019-05-29T04:24:00.080Z,11.19
2019-05-29T04:26:37.901Z,11.19
2019-05-29T04:29:12.486Z,11.16
2019-05-29T04:31:45.883Z,11.26
2019-05-29T04:34:19.354Z,11.22
2019-05-29T04:36:52.742Z,11.30
2019-05-29T04:39:26.159Z,11.34
2019-05-29T04:41:59.580Z,11.29
2019-05-29T04:44:33.911Z,11.27
2019-05-29T04:47:11.554Z,11.39
2019-05-29T04:49:43.274Z,11.32
2019-05-29T04:52:16.676Z,11.38
2019-05-29T04:54:50.076Z,11.36
2019-05-29T04:57:23.562Z,11.41
2019-05-29T04:59:56.948Z,11.46
2019-05-29T05:02:31.091Z,11.45
2019-05-29T05:05:05.909Z,11.46
2019-05-29T05:07:39.739Z,11.45
2019-05-29T05:10:14.889Z,11.51
2019-05-29T05:12:48.435Z,11.66
2019-05-29T05:15:21.818Z,11.71
2019-05-29T05:17:55.211Z,11.69
2019-05-29T05:20:29.873Z,11.59
2019-05-29T05:23:03.467Z,11.59
2019-05-29T05:25:36.872Z,11.69
2019-05-29T05:28:10.308Z,11.83
2019-05-29T05:30:44.051Z,11.73
2019-05-29T05:33:17.459Z,11.89
2019-05-29T05:35:50.859Z,11.88
2019-05-29T05:38:24.352Z,11.92
2019-05-29T05:40:57.761Z,11.96
2019-05-29T05:43:31.174Z,12.06
2019-05-29T05:46:04.635Z,12.08
2019-05-29T05:48:39.174Z,12.29
2019-05-29T05:51:12.659Z,12.19
2019-05-29T05:53:46.052Z,12.11
2019-05-29T05:56:19.456Z,12.15
2019-05-29T05:58:52.857Z,12.27
2019-05-29T06:01:26.277Z,12.29
2019-05-29T06:03:59.758Z,12.17
2019-05-29T06:06:33.921Z,12.21
2019-05-29T06:09:08.464Z,12.31
2019-05-29T06:11:42.605Z,12.50
2019-05-29T06:14:16.103Z,12.65
2019-05-29T06:16:49.573Z,12.31
2019-05-29T06:19:22.980Z,12.32
2019-05-29T06:21:56.387Z,12.39
2019-05-29T06:24:29.827Z,12.31
2019-05-29T06:27:03.190Z,12.44
2019-05-29T06:29:37.139Z,12.83
2019-05-29T06:32:10.564Z,12.53
2019-05-29T06:34:43.992Z,12.56
2019-05-29T06:37:17.370Z,12.67
2019-05-29T06:39:50.798Z,12.49
2019-05-29T06:42:24.261Z,12.52
2019-05-29T06:44:57.688Z,12.99
2019-05-29T06:47:31.139Z,12.98
2019-05-29T06:50:05.705Z,12.83
2019-05-29T06:52:39.508Z,12.97
2019-05-29T06:55:13.048Z,13.15
2019-05-29T06:57:46.450Z,12.99
2019-05-29T07:00:34.472Z,13.32
2019-05-29T07:02:55.098Z,13.30
2019-05-29T07:05:28.522Z,13.19
2019-05-29T07:08:16.747Z,13.54
2019-05-29T07:10:38.486Z,13.80
2019-05-29T07:13:12.894Z,14.13
2019-05-29T07:15:47.584Z,14.47
2019-05-29T07:18:21.189Z,13.97
2019-05-29T07:20:54.668Z,14.04
2019-05-29T07:23:28.054Z,15.73
2019-05-29T07:26:01.488Z,14.58
2019-05-29T07:28:34.979Z,14.58
2019-05-29T07:31:08.480Z,15.22
2019-05-29T07:33:54.641Z,15.07
2019-05-29T07:36:28.214Z,14.80
2019-05-29T07:39:03.468Z,13.82
2019-05-29T07:41:37.846Z,13.74
2019-05-29T07:44:11.317Z,13.99
2019-05-29T07:46:45.271Z,14.19
2019-05-29T07:49:19.999Z,13.81
2019-05-29T07:51:53.653Z,13.77
2019-05-29T07:54:27.014Z,14.11
2019-05-29T07:57:00.447Z,14.57
2019-05-29T07:59:33.860Z,13.83
2019-05-29T08:02:07.391Z,13.91
2019-05-29T08:04:41.049Z,14.35
2019-05-29T08:07:14.474Z,14.16
2019-05-29T08:09:47.964Z,14.76
2019-05-29T08:12:21.392Z,14.98
2019-05-29T08:14:54.776Z,15.08
2019-05-29T08:17:28.195Z,15.04
2019-05-29T08:20:06.788Z,14.92
2019-05-29T08:22:36.936Z,14.81
2019-05-29T08:25:10.407Z,14.86
2019-05-29T08:27:44.722Z,15.28
2019-05-29T08:30:18.556Z,14.01
2019-05-29T08:32:51.976Z,14.80
2019-05-29T08:35:25.374Z,15.91
2019-05-29T08:37:58.838Z,15.32
2019-05-29T08:40:32.359Z,16.14
2019-05-29T08:43:05.811Z,16.10
2019-05-29T08:45:39.213Z,15.66
2019-05-29T08:48:12.619Z,16.05
2019-05-29T08:50:46.013Z,15.76
2019-05-29T08:53:19.455Z,16.34
2019-05-29T08:55:52.884Z,16.05
2019-05-29T08:58:26.379Z,15.92
2019-05-29T09:00:59.796Z,14.92
2019-05-29T09:03:33.237Z,15.35
2019-05-29T09:06:09.241Z,15.55
2019-05-29T09:08:43.769Z,16.38
2019-05-29T09:11:16.990Z,16.03
2019-05-29T09:13:50.395Z,16.35
2019-05-29T09:16:24.009Z,16.35
2019-05-29T09:18:57.402Z,16.35
2019-05-29T09:21:30.809Z,16.07
2019-05-29T09:24:04.785Z,15.94
2019-05-29T09:26:38.205Z,16.04
2019-05-29T09:29:11.623Z,16.04
2019-05-29T09:31:45.075Z,15.94
2019-05-29T09:34:18.849Z,15.28
2019-05-29T09:36:55.826Z,15.79
2019-05-29T09:39:29.624Z,15.78
2019-05-29T09:42:03.170Z,15.85
2019-05-29T09:44:39.106Z,15.74
2019-05-29T09:47:12.448Z,16.06
2019-05-29T09:49:45.869Z,15.61
2019-05-29T09:52:19.315Z,16.05
2019-05-29T09:54:53.440Z,16.01
2019-05-29T09:57:28.002Z,15.70
2019-05-29T10:00:02.109Z,16.22
2019-05-29T10:02:36.619Z,16.58
2019-05-29T10:05:10.315Z,16.92
2019-05-29T10:07:43.723Z,16.99
2019-05-29T10:10:17.674Z,17.49
2019-05-29T10:12:51.070Z,16.74
2019-05-29T10:15:24.721Z,16.09
2019-05-29T10:17:58.494Z,16.41
2019-05-29T10:20:31.999Z,16.16
2019-05-29T10:23:05.396Z,15.94
2019-05-29T10:25:38.878Z,16.03
2019-05-29T10:28:12.493Z,15.65
2019-05-29T10:30:46.330Z,15.73
2019-05-29T10:33:19.867Z,15.92
2019-05-29T10:35:55.370Z,16.51
2019-05-29T10:38:28.433Z,16.60
2019-05-29T10:41:06.697Z,17.13
2019-05-29T10:43:37.051Z,17.03
2019-05-29T10:46:10.480Z,16.11
2019-05-29T10:48:45.476Z,16.11
2019-05-29T10:51:19.075Z,16.19
2019-05-29T10:53:55.301Z,16.62
2019-05-29T10:56:27.641Z,16.35
2019-05-29T10:59:01.078Z,16.52
2019-05-29T11:01:34.971Z,16.52
2019-05-29T11:04:08.566Z,16.95
2019-05-29T11:06:42.316Z,17.68
2019-05-29T11:09:15.712Z,18.08
2019-05-29T11:11:50.691Z,17.93
2019-05-29T11:14:24.263Z,17.52
2019-05-29T11:16:57.761Z,17.81
2019-05-29T11:19:31.102Z,17.47
2019-05-29T11:22:24.818Z,17.76
2019-05-29T11:24:40.077Z,18.58
2019-05-29T11:27:13.562Z,18.40
2019-05-29T11:29:48.606Z,17.85
2019-05-29T11:32:22.191Z,17.06
2019-05-29T11:34:55.646Z,17.03
2019-05-29T11:37:29.107Z,17.05
2019-05-29T11:40:03.344Z,17.12
2019-05-29T11:42:36.794Z,16.88
2019-05-29T11:45:11.466Z,16.96
2019-05-29T11:47:44.895Z,16.88
2019-05-29T11:50:20.169Z,16.96
2019-05-29T11:52:54.427Z,16.91
2019-05-29T11:55:27.869Z,17.05
2019-05-29T11:58:02.039Z,17.41
2019-05-29T12:00:35.534Z,17.05
2019-05-29T12:03:09.230Z,17.73
2019-05-29T12:05:42.653Z,17.20
2019-05-29T12:08:16.149Z,17.31
2019-05-29T12:10:49.563Z,17.65
2019-05-29T12:13:22.974Z,17.09
2019-05-29T12:15:57.648Z,17.71
2019-05-29T12:18:31.265Z,18.23
2019-05-29T12:21:04.788Z,18.22
2019-05-29T12:23:38.204Z,17.42
2019-05-29T12:26:21.839Z,17.44
2019-05-29T12:28:46.895Z,17.68
2019-05-29T12:31:20.291Z,17.39
2019-05-29T12:33:54.938Z,17.46
2019-05-29T12:36:28.404Z,16.98
2019-05-29T12:39:02.370Z,17.03
2019-05-29T12:41:36.966Z,17.29
2019-05-29T12:44:10.390Z,16.69
2019-05-29T12:46:43.808Z,16.91
2019-05-29T12:49:17.310Z,16.41
2019-05-29T12:51:50.702Z,16.97
2019-05-29T12:54:24.109Z,17.44
2019-05-29T12:56:57.820Z,17.39
2019-05-29T12:59:31.974Z,17.28
2019-05-29T13:02:05.457Z,17.51
2019-05-29T13:05:06.142Z,18.44
2019-05-29T13:07:14.037Z,18.67
2019-05-29T13:09:47.435Z,18.67
2019-05-29T13:12:20.908Z,18.42
2019-05-29T13:14:54.503Z,18.37
2019-05-29T13:17:27.901Z,18.83
2019-05-29T13:20:13.681Z,18.56
2019-05-29T13:22:38.012Z,19.12
2019-05-29T13:25:12.278Z,18.88
2019-05-29T13:27:45.767Z,19.12
2019-05-29T13:30:19.952Z,18.95
2019-05-29T13:32:53.383Z,19.25
2019-05-29T13:35:27.001Z,19.68
2019-05-29T13:38:01.015Z,19.45
2019-05-29T13:40:34.460Z,19.25
2019-05-29T13:43:15.111Z,18.60
2019-05-29T13:45:43.189Z,18.33
2019-05-29T13:48:16.656Z,18.32
2019-05-29T13:50:50.068Z,17.64
2019-05-29T13:53:23.465Z,18.57
2019-05-29T13:55:57.736Z,18.23
2019-05-29T13:58:31.347Z,18.33
2019-05-29T14:01:06.234Z,18.98
2019-05-29T14:03:39.908Z,18.92
2019-05-29T14:06:13.414Z,18.47
2019-05-29T14:08:47.660Z,18.49
2019-05-29T14:11:21.158Z,18.13
2019-05-29T14:13:56.454Z,18.19
2019-05-29T14:16:30.010Z,18.31
2019-05-29T14:19:04.737Z,18.58
2019-05-29T14:21:38.308Z,18.54
2019-05-29T14:24:26.560Z,19.00
2019-05-29T14:26:48.494Z,18.97
2019-05-29T14:29:21.933Z,19.38
2019-05-29T14:31:55.480Z,19.43
2019-05-29T14:34:28.871Z,19.87
2019-05-29T14:37:04.149Z,19.83
2019-05-29T14:39:37.472Z,20.29
2019-05-29T14:42:11.892Z,19.48
2019-05-29T14:44:45.432Z,20.15
2019-05-29T14:47:18.867Z,20.14
2019-05-29T14:49:52.241Z,20.06
2019-05-29T14:52:25.673Z,20.02
2019-05-29T14:54:59.087Z,19.26
2019-05-29T14:57:32.557Z,19.38
2019-05-29T15:00:22.199Z,19.09
2019-05-29T15:02:44.283Z,18.98
2019-05-29T15:05:18.008Z,18.64
2019-05-29T15:07:51.434Z,18.57
2019-05-29T15:10:27.693Z,18.00
2019-05-29T15:13:00.068Z,17.82
2019-05-29T15:15:33.501Z,17.73
2019-05-29T15:18:07.125Z,17.70
2019-05-29T15:20:40.584Z,17.82
2019-05-29T15:23:15.462Z,18.12
2019-05-29T15:25:49.271Z,18.47
2019-05-29T15:28:22.723Z,19.35
2019-05-29T15:30:56.134Z,20.41
2019-05-29T15:33:29.564Z,22.02
2019-05-29T15:36:02.996Z,22.51
2019-05-29T15:38:36.457Z,20.56
2019-05-29T15:41:10.708Z,20.61
2019-05-29T15:43:44.151Z,20.91
2019-05-29T15:46:17.715Z,21.58
2019-05-29T15:48:51.280Z,22.05
2019-05-29T15:51:24.685Z,20.74
2019-05-29T15:53:58.141Z,21.01
2019-05-29T15:56:31.505Z,22.66
2019-05-29T15:59:07.574Z,23.47
2019-05-29T16:01:40.814Z,22.46
2019-05-29T16:04:15.749Z,23.57
2019-05-29T16:06:49.414Z,21.17
2019-05-29T16:09:22.912Z,19.85
2019-05-29T16:11:56.476Z,20.03
2019-05-29T16:14:29.895Z,19.32
2019-05-29T16:17:03.294Z,18.97
2019-05-29T16:19:36.708Z,18.66
2019-05-29T16:22:10.326Z,18.51
2019-05-29T16:24:43.821Z,18.48
2019-05-29T16:27:18.182Z,18.64
2019-05-29T16:29:51.658Z,18.47
2019-05-29T16:32:25.056Z,19.79
2019-05-29T16:34:58.468Z,20.58
2019-05-29T16:37:31.884Z,21.30
2019-05-29T16:40:11.875Z,21.64
2019-05-29T16:42:45.526Z,19.61
2019-05-29T16:45:20.465Z,18.80
2019-05-29T16:47:54.088Z,19.10
2019-05-29T16:50:27.512Z,21.49
2019-05-29T16:53:00.917Z,21.14
2019-05-29T16:55:34.347Z,22.47
2019-05-29T16:58:07.821Z,22.45
2019-05-29T17:00:41.318Z,21.50
2019-05-29T17:03:15.587Z,20.44
2019-05-29T17:05:49.056Z,20.13
2019-05-29T17:08:22.458Z,20.75
2019-05-29T17:10:55.968Z,19.83
2019-05-29T17:13:29.382Z,20.22
2019-05-29T17:16:02.817Z,20.52
2019-05-29T17:18:36.234Z,21.46
2019-05-29T17:21:09.671Z,20.66
2019-05-29T17:23:43.066Z,20.86
2019-05-29T17:26:16.752Z,20.62
2019-05-29T17:28:50.358Z,19.52
2019-05-29T17:31:24.961Z,19.46
2019-05-29T17:33:58.508Z,18.71
2019-05-29T17:36:32.039Z,20.23
2019-05-29T17:39:08.060Z,21.04
2019-05-29T17:41:41.518Z,21.32
2019-05-29T17:44:15.448Z,21.05
2019-05-29T17:46:48.899Z,20.25
2019-05-29T17:49:30.956Z,20.49
2019-05-29T17:51:57.490Z,19.96
2019-05-29T17:54:30.931Z,20.65
2019-05-29T17:57:04.525Z,20.12
2019-05-29T17:59:37.900Z,19.75
2019-05-29T18:02:11.330Z,18.77
2019-05-29T18:04:44.766Z,18.25
2019-05-29T18:07:18.416Z,18.29
2019-05-29T18:09:52.059Z,18.01
2019-05-29T18:12:25.487Z,17.79
2019-05-29T18:14:58.910Z,17.79
2019-05-29T18:17:32.385Z,17.63
2019-05-29T18:20:14.305Z,17.61
2019-05-29T18:22:45.601Z,17.48
2019-05-29T18:25:19.881Z,17.41
2019-05-29T18:27:53.272Z,17.35
2019-05-29T18:30:26.843Z,17.28
2019-05-29T18:33:00.349Z,17.22
2019-05-29T18:35:33.853Z,17.04
2019-05-29T18:38:07.286Z,16.97
2019-05-29T18:40:40.751Z,16.86
2019-05-29T18:43:14.181Z,16.78
2019-05-29T18:45:47.678Z,16.74
2019-05-29T18:48:21.213Z,16.68
2019-05-29T18:50:54.626Z,16.60
2019-05-29T18:53:28.906Z,16.53
2019-05-29T18:56:02.357Z,16.59
2019-05-29T18:58:35.745Z,16.53
2019-05-29T19:01:09.248Z,16.45
2019-05-29T19:03:42.647Z,16.38
2019-05-29T19:06:16.083Z,16.38
2019-05-29T19:08:49.494Z,16.31
2019-05-29T19:11:23.852Z,16.22
2019-05-29T19:13:57.345Z,16.14
2019-05-29T19:16:31.974Z,16.00
2019-05-29T19:19:06.212Z,15.92
2019-05-29T19:21:39.778Z,15.81
2019-05-29T19:24:13.189Z,15.75
2019-05-29T19:26:46.632Z,15.63
2019-05-29T19:29:20.019Z,15.59
2019-05-29T19:31:53.487Z,15.64
2019-05-29T19:34:27.349Z,15.55
2019-05-29T19:37:00.804Z,15.46
2019-05-29T19:39:34.276Z,15.42
2019-05-29T19:42:07.739Z,15.31
2019-05-29T19:44:41.182Z,15.24
2019-05-29T19:47:14.629Z,15.18
2019-05-29T19:49:48.031Z,15.15
2019-05-29T19:52:21.469Z,15.11
2019-05-29T19:54:54.864Z,15.00
2019-05-29T19:57:28.334Z,14.84
2019-05-29T20:00:01.765Z,14.72
2019-05-29T20:02:35.245Z,14.59
2019-05-29T20:05:09.617Z,14.52
2019-05-29T20:07:43.042Z,14.48
2019-05-29T20:10:18.081Z,14.47
2019-05-29T20:12:51.526Z,14.34
2019-05-29T20:15:24.994Z,14.39
2019-05-29T20:17:58.447Z,14.28
2019-05-29T20:20:32.438Z,14.29
2019-05-29T20:23:05.935Z,14.30
2019-05-29T20:25:39.356Z,14.24
2019-05-29T20:28:12.828Z,14.24
2019-05-29T20:30:46.206Z,14.17
2019-05-29T20:33:19.644Z,14.12
2019-05-29T20:35:53.047Z,14.06
2019-05-29T20:38:26.454Z,14.00
2019-05-29T20:40:59.868Z,14.04
2019-05-29T20:43:33.520Z,14.07
2019-05-29T20:46:06.844Z,14.14
2019-05-29T20:48:40.267Z,14.21
2019-05-29T20:51:13.665Z,14.22
2019-05-29T20:53:47.106Z,14.17
2019-05-29T20:56:20.583Z,14.04
2019-05-29T20:58:54.071Z,13.94
2019-05-29T21:01:27.479Z,13.85
2019-05-29T21:04:00.919Z,13.68
2019-05-29T21:06:34.627Z,13.68
2019-05-29T21:09:08.332Z,13.61
2019-05-29T21:11:41.844Z,13.48
2019-05-29T21:14:15.277Z,13.43
2019-05-29T21:16:48.702Z,13.36
2019-05-29T21:19:22.114Z,13.30
2019-05-29T21:21:55.515Z,13.25
2019-05-29T21:24:28.924Z,13.11
2019-05-29T21:27:02.401Z,13.01
2019-05-29T21:29:36.952Z,13.01
2019-05-29T21:32:10.980Z,12.98
2019-05-29T21:34:44.419Z,12.94
2019-05-29T21:37:17.892Z,12.92
2019-05-29T21:39:51.338Z,12.88
2019-05-29T21:42:24.739Z,12.86
2019-05-29T21:44:58.151Z,12.82
2019-05-29T21:47:31.561Z,12.76
2019-05-29T21:50:09.678Z,12.74
2019-05-29T21:52:43.628Z,12.64
2019-05-29T21:55:17.502Z,12.55
2019-05-29T21:57:50.900Z,12.49
2019-05-29T22:00:33.594Z,12.46
2019-05-29T22:03:07.082Z,12.44
2019-05-29T22:05:40.637Z,12.44
2019-05-29T22:08:14.098Z,12.27
2019-05-29T22:10:47.538Z,12.22
2019-05-29T22:13:20.942Z,12.13
2019-05-29T22:15:54.804Z,12.04
2019-05-29T22:18:28.408Z,12.06
2019-05-29T22:21:01.902Z,12.07
2019-05-29T22:23:35.307Z,12.03
2019-05-29T22:26:08.720Z,12.00
2019-05-29T22:28:42.432Z,11.96
2019-05-29T22:31:15.886Z,11.91
2019-05-29T22:33:49.357Z,11.88
2019-05-29T22:36:22.850Z,11.84
2019-05-29T22:38:57.402Z,11.77
2019-05-29T22:41:31.016Z,11.75
2019-05-29T22:44:04.727Z,11.71
2019-05-29T22:46:38.155Z,11.66
2019-05-29T22:49:11.627Z,11.56
2019-05-29T22:51:45.037Z,11.65
2019-05-29T22:54:18.431Z,11.53
2019-05-29T22:56:52.485Z,11.39
2019-05-29T22:59:32.056Z,11.22
2019-05-29T23:02:02.603Z,11.26
2019-05-29T23:04:36.129Z,11.33
2019-05-29T23:07:09.652Z,11.38
2019-05-29T23:09:43.037Z,11.39
2019-05-29T23:12:16.555Z,11.28
2019-05-29T23:14:49.968Z,11.22
2019-05-29T23:17:23.461Z,11.17
2019-05-29T23:19:56.856Z,11.13
2019-05-29T23:22:30.348Z,11.17
2019-05-29T23:25:04.401Z,11.19
2019-05-29T23:27:37.910Z,11.20
2019-05-29T23:30:12.754Z,11.15
2019-05-29T23:32:46.173Z,11.05
2019-05-29T23:35:19.734Z,10.98
2019-05-29T23:37:53.145Z,11.03
2019-05-29T23:40:26.548Z,11.05
2019-05-29T23:42:59.998Z,10.94
2019-05-29T23:45:33.552Z,10.80
2019-05-29T23:48:06.961Z,10.72
2019-05-29T23:50:40.359Z,10.68
2019-05-29T23:53:13.786Z,10.63
2019-05-29T23:55:47.173Z,10.62
2019-05-29T23:58:20.592Z,10.58
